Airfield :
LOGIN :

Register | Disclaimer

   EN    FR    IT 

 










Legend :    VFR   Marginal VFR   IFR   Intensive IFR   Very Intensive IFR
Visi :
Ceiling :
>= 8 km
>= 3000ft
5 to 8 km
1000 to 3000 ft
1500m to 5 km
500 to 1000 ft
800 to 1500m
200 to 500 ft
< 800m
< 200 ft
Symbols :   Thunderstorms  Fog  Heavy snow  Heavy precipitations  Wind > 20 kt
SIGMETs :     Misc.  Thunderstorms  Icing  Turbulence  Mountain Waves  Volcanic Ashes







- Airport Elevation : 19 ft
- IATA code : BEB
- Download approach charts


EGPL - Benbecula

CURRENT METAR :
  • 211850Z 31010KT 9999 FEW020 11/06 Q1020

EXPIRED METARs :
  • 211820Z 31011KT 9999 FEW020 12/06 Q1020
  • 211750Z 31010KT 9999 FEW020 12/05 Q1020
  • 211720Z AUTO 30011KT 9999 NCD 12/06 Q1020
  • 211650Z AUTO 30011KT 9999 NCD 12/06 Q1020
  • 211620Z 30011KT 9999 FEW018 12/06 Q1020

Expired Forecast.
ATIS : +44 1870 604 818
No reported NOTAMs for that airfield.



MET'MAP, your aeronautical weather chart ! - Copyright ORBIFLY December 2007 - Disclaimer

ORBIFLY MET'MAP TEAM :

Programming & Development : Alexandra Zaïnal
Concept & Development : Baudouin d'Aumeries
Co-Development & Prog : Marc-Olivier Méhu
Technical & hardware support : Manuel Goepfert

Contact : metmap@orbifly.com




SOURCES & CREDITS :

   NOAA